sensor_id;sensor_type;location;lat;lon;timestamp;P1;durP1;ratioP1;P2;durP2;ratioP2
63296;SDS011;49419;51.716;-4.948;2023-06-22T00:00:08;4.10;;;3.90;;
63296;SDS011;49419;51.716;-4.948;2023-06-22T00:02:37;4.10;;;3.80;;
63296;SDS011;49419;51.716;-4.948;2023-06-22T00:05:08;4.10;;;3.90;;
63296;SDS011;49419;51.716;-4.948;2023-06-22T00:07:33;4.40;;;4.20;;
63296;SDS011;49419;51.716;-4.948;2023-06-22T00:10:00;4.30;;;4.10;;
63296;SDS011;49419;51.716;-4.948;2023-06-22T00:12:26;4.70;;;4.50;;
63296;SDS011;49419;51.716;-4.948;2023-06-22T00:14:52;4.30;;;4.10;;
63296;SDS011;49419;51.716;-4.948;2023-06-22T00:17:18;4.20;;;4.00;;
63296;SDS011;49419;51.716;-4.948;2023-06-22T00:19:46;4.00;;;3.80;;
63296;SDS011;49419;51.716;-4.948;2023-06-22T00:22:13;4.07;;;3.88;;
63296;SDS011;49419;51.716;-4.948;2023-06-22T00:24:46;4.32;;;4.13;;
63296;SDS011;49419;51.716;-4.948;2023-06-22T00:27:11;4.22;;;4.03;;
63296;SDS011;49419;51.716;-4.948;2023-06-22T00:29:37;4.40;;;4.20;;
63296;SDS011;49419;51.716;-4.948;2023-06-22T00:32:03;4.20;;;4.00;;
63296;SDS011;49419;51.716;-4.948;2023-06-22T00:34:29;4.43;;;4.22;;
63296;SDS011;49419;51.716;-4.948;2023-06-22T00:36:59;4.50;;;4.30;;
63296;SDS011;49419;51.716;-4.948;2023-06-22T00:39:27;4.40;;;4.20;;
63296;SDS011;49419;51.716;-4.948;2023-06-22T00:41:52;4.50;;;4.30;;
63296;SDS011;49419;51.716;-4.948;2023-06-22T00:44:27;4.40;;;4.20;;
63296;SDS011;49419;51.716;-4.948;2023-06-22T00:46:53;4.40;;;4.20;;
63296;SDS011;49419;51.716;-4.948;2023-06-22T00:49:31;4.30;;;4.10;;
63296;SDS011;49419;51.716;-4.948;2023-06-22T00:51:59;4.35;;;4.15;;
63296;SDS011;49419;51.716;-4.948;2023-06-22T00:54:26;4.53;;;4.32;;
63296;SDS011;49419;51.716;-4.948;2023-06-22T00:57:01;4.47;;;4.28;;
63296;SDS011;49419;51.716;-4.948;2023-06-22T00:59:50;4.70;;;4.38;;
63296;SDS011;49419;51.716;-4.948;2023-06-22T01:02:36;4.90;;;4.70;;
63296;SDS011;49419;51.716;-4.948;2023-06-22T01:05:15;4.60;;;4.40;;
63296;SDS011;49419;51.716;-4.948;2023-06-22T01:16:28;4.70;;;4.50;;
63296;SDS011;49419;51.716;-4.948;2023-06-22T01:19:06;4.63;;;4.43;;
63296;SDS011;49419;51.716;-4.948;2023-06-22T01:21:55;4.40;;;4.20;;
63296;SDS011;49419;51.716;-4.948;2023-06-22T01:24:45;4.55;;;4.35;;
63296;SDS011;49419;51.716;-4.948;2023-06-22T01:32:37;4.40;;;4.20;;
63296;SDS011;49419;51.716;-4.948;2023-06-22T01:35:04;4.53;;;4.32;;
63296;SDS011;49419;51.716;-4.948;2023-06-22T01:37:42;4.60;;;4.40;;
63296;SDS011;49419;51.716;-4.948;2023-06-22T01:40:08;4.43;;;4.22;;
63296;SDS011;49419;51.716;-4.948;2023-06-22T01:42:34;4.50;;;4.30;;
63296;SDS011;49419;51.716;-4.948;2023-06-22T01:45:01;4.47;;;4.28;;
63296;SDS011;49419;51.716;-4.948;2023-06-22T01:47:30;4.50;;;4.30;;
63296;SDS011;49419;51.716;-4.948;2023-06-22T01:50:02;4.40;;;4.20;;
63296;SDS011;49419;51.716;-4.948;2023-06-22T01:52:31;4.27;;;4.07;;
63296;SDS011;49419;51.716;-4.948;2023-06-22T01:55:01;4.35;;;4.15;;
63296;SDS011;49419;51.716;-4.948;2023-06-22T01:57:37;4.50;;;4.30;;
63296;SDS011;49419;51.716;-4.948;2023-06-22T02:00:05;4.40;;;4.20;;
63296;SDS011;49419;51.716;-4.948;2023-06-22T02:02:42;4.60;;;4.40;;
63296;SDS011;49419;51.716;-4.948;2023-06-22T02:05:37;4.40;;;4.20;;
63296;SDS011;49419;51.716;-4.948;2023-06-22T02:08:19;4.40;;;4.20;;
63296;SDS011;49419;51.716;-4.948;2023-06-22T02:10:55;4.40;;;4.20;;
63296;SDS011;49419;51.716;-4.948;2023-06-22T02:13:24;4.47;;;4.28;;
63296;SDS011;49419;51.716;-4.948;2023-06-22T02:16:02;4.40;;;4.20;;
63296;SDS011;49419;51.716;-4.948;2023-06-22T02:18:29;4.50;;;4.30;;
63296;SDS011;49419;51.716;-4.948;2023-06-22T02:20:59;4.50;;;4.30;;
63296;SDS011;49419;51.716;-4.948;2023-06-22T02:23:47;4.30;;;4.10;;
63296;SDS011;49419;51.716;-4.948;2023-06-22T02:26:16;4.28;;;4.07;;
63296;SDS011;49419;51.716;-4.948;2023-06-22T02:28:54;4.50;;;4.30;;
63296;SDS011;49419;51.716;-4.948;2023-06-22T02:33:47;4.50;;;4.30;;
63296;SDS011;49419;51.716;-4.948;2023-06-22T02:36:14;4.50;;;4.30;;
63296;SDS011;49419;51.716;-4.948;2023-06-22T02:38:43;4.70;;;4.50;;
63296;SDS011;49419;51.716;-4.948;2023-06-22T02:41:14;4.50;;;4.30;;
63296;SDS011;49419;51.716;-4.948;2023-06-22T02:43:46;4.50;;;4.30;;
63296;SDS011;49419;51.716;-4.948;2023-06-22T02:46:12;4.50;;;4.30;;
63296;SDS011;49419;51.716;-4.948;2023-06-22T02:48:43;4.70;;;4.50;;
63296;SDS011;49419;51.716;-4.948;2023-06-22T02:51:18;4.60;;;4.40;;
63296;SDS011;49419;51.716;-4.948;2023-06-22T02:53:43;4.70;;;4.50;;
63296;SDS011;49419;51.716;-4.948;2023-06-22T02:56:11;4.70;;;4.50;;
63296;SDS011;49419;51.716;-4.948;2023-06-22T02:58:52;4.70;;;4.50;;
63296;SDS011;49419;51.716;-4.948;2023-06-22T03:01:26;4.75;;;4.55;;
63296;SDS011;49419;51.716;-4.948;2023-06-22T03:03:53;4.57;;;4.38;;
63296;SDS011;49419;51.716;-4.948;2023-06-22T03:06:32;4.60;;;4.40;;
63296;SDS011;49419;51.716;-4.948;2023-06-22T03:11:47;4.60;;;4.40;;
63296;SDS011;49419;51.716;-4.948;2023-06-22T03:14:12;4.60;;;4.40;;
63296;SDS011;49419;51.716;-4.948;2023-06-22T03:16:41;4.70;;;4.50;;
63296;SDS011;49419;51.716;-4.948;2023-06-22T03:19:14;4.68;;;4.47;;
63296;SDS011;49419;51.716;-4.948;2023-06-22T03:21:43;4.53;;;4.32;;
63296;SDS011;49419;51.716;-4.948;2023-06-22T03:24:08;4.70;;;4.50;;
63296;SDS011;49419;51.716;-4.948;2023-06-22T03:26:41;4.43;;;4.22;;
63296;SDS011;49419;51.716;-4.948;2023-06-22T03:29:17;4.70;;;4.50;;
63296;SDS011;49419;51.716;-4.948;2023-06-22T03:31:50;4.43;;;4.22;;
63296;SDS011;49419;51.716;-4.948;2023-06-22T03:34:16;4.50;;;4.30;;
63296;SDS011;49419;51.716;-4.948;2023-06-22T03:36:43;4.50;;;4.30;;
63296;SDS011;49419;51.716;-4.948;2023-06-22T03:39:10;4.60;;;4.40;;
63296;SDS011;49419;51.716;-4.948;2023-06-22T03:41:47;4.53;;;4.32;;
63296;SDS011;49419;51.716;-4.948;2023-06-22T03:44:13;4.50;;;4.30;;
63296;SDS011;49419;51.716;-4.948;2023-06-22T03:46:39;4.90;;;4.70;;
63296;SDS011;49419;51.716;-4.948;2023-06-22T03:49:04;4.70;;;4.50;;
63296;SDS011;49419;51.716;-4.948;2023-06-22T03:51:32;4.82;;;4.63;;
63296;SDS011;49419;51.716;-4.948;2023-06-22T03:53:58;4.50;;;4.30;;
63296;SDS011;49419;51.716;-4.948;2023-06-22T03:56:23;4.47;;;4.28;;
63296;SDS011;49419;51.716;-4.948;2023-06-22T03:58:55;4.57;;;4.38;;
63296;SDS011;49419;51.716;-4.948;2023-06-22T04:01:21;4.60;;;4.40;;
63296;SDS011;49419;51.716;-4.948;2023-06-22T04:03:46;4.80;;;4.60;;
63296;SDS011;49419;51.716;-4.948;2023-06-22T04:06:16;4.50;;;4.30;;
63296;SDS011;49419;51.716;-4.948;2023-06-22T04:08:45;4.82;;;4.63;;
63296;SDS011;49419;51.716;-4.948;2023-06-22T04:11:18;4.72;;;4.45;;
63296;SDS011;49419;51.716;-4.948;2023-06-22T04:13:45;4.82;;;4.60;;
63296;SDS011;49419;51.716;-4.948;2023-06-22T04:16:11;4.80;;;4.60;;
63296;SDS011;49419;51.716;-4.948;2023-06-22T04:18:36;4.60;;;4.40;;
63296;SDS011;49419;51.716;-4.948;2023-06-22T04:21:03;4.60;;;4.40;;
63296;SDS011;49419;51.716;-4.948;2023-06-22T04:23:30;4.57;;;4.38;;
63296;SDS011;49419;51.716;-4.948;2023-06-22T04:25:56;4.68;;;4.47;;
63296;SDS011;49419;51.716;-4.948;2023-06-22T04:28:22;4.60;;;4.40;;
63296;SDS011;49419;51.716;-4.948;2023-06-22T04:30:55;4.50;;;4.30;;
63296;SDS011;49419;51.716;-4.948;2023-06-22T04:33:23;4.50;;;4.30;;
63296;SDS011;49419;51.716;-4.948;2023-06-22T04:35:57;4.60;;;4.40;;
63296;SDS011;49419;51.716;-4.948;2023-06-22T04:38:47;4.60;;;4.40;;
63296;SDS011;49419;51.716;-4.948;2023-06-22T04:41:28;4.70;;;4.50;;
63296;SDS011;49419;51.716;-4.948;2023-06-22T04:43:55;4.60;;;4.40;;
63296;SDS011;49419;51.716;-4.948;2023-06-22T04:46:33;4.78;;;4.45;;
63296;SDS011;49419;51.716;-4.948;2023-06-22T04:49:08;4.60;;;4.40;;
63296;SDS011;49419;51.716;-4.948;2023-06-22T04:51:57;4.80;;;4.50;;
63296;SDS011;49419;51.716;-4.948;2023-06-22T04:54:33;4.80;;;4.50;;
63296;SDS011;49419;51.716;-4.948;2023-06-22T04:57:01;4.53;;;4.32;;
63296;SDS011;49419;51.716;-4.948;2023-06-22T04:59:28;4.90;;;4.60;;
63296;SDS011;49419;51.716;-4.948;2023-06-22T05:02:10;4.70;;;4.50;;
63296;SDS011;49419;51.716;-4.948;2023-06-22T05:04:40;4.63;;;4.43;;
63296;SDS011;49419;51.716;-4.948;2023-06-22T05:07:07;4.53;;;4.32;;
63296;SDS011;49419;51.716;-4.948;2023-06-22T05:09:41;4.82;;;4.50;;
63296;SDS011;49419;51.716;-4.948;2023-06-22T05:12:07;4.78;;;4.53;;
63296;SDS011;49419;51.716;-4.948;2023-06-22T05:14:34;4.50;;;4.30;;
63296;SDS011;49419;51.716;-4.948;2023-06-22T05:17:09;4.57;;;4.38;;
63296;SDS011;49419;51.716;-4.948;2023-06-22T05:19:47;4.40;;;4.20;;
63296;SDS011;49419;51.716;-4.948;2023-06-22T05:22:41;4.70;;;4.50;;
63296;SDS011;49419;51.716;-4.948;2023-06-22T05:25:08;4.38;;;4.18;;
63296;SDS011;49419;51.716;-4.948;2023-06-22T05:27:51;4.50;;;4.30;;
63296;SDS011;49419;51.716;-4.948;2023-06-22T05:30:17;4.50;;;4.30;;
63296;SDS011;49419;51.716;-4.948;2023-06-22T05:32:54;4.40;;;4.20;;
63296;SDS011;49419;51.716;-4.948;2023-06-22T05:35:19;4.50;;;4.30;;
63296;SDS011;49419;51.716;-4.948;2023-06-22T05:37:46;4.40;;;4.20;;
63296;SDS011;49419;51.716;-4.948;2023-06-22T05:40:13;4.50;;;4.30;;
63296;SDS011;49419;51.716;-4.948;2023-06-22T05:42:41;4.20;;;4.00;;
63296;SDS011;49419;51.716;-4.948;2023-06-22T05:45:10;4.20;;;4.00;;
63296;SDS011;49419;51.716;-4.948;2023-06-22T05:47:46;4.10;;;3.90;;
63296;SDS011;49419;51.716;-4.948;2023-06-22T05:52:40;3.92;;;3.72;;
63296;SDS011;49419;51.716;-4.948;2023-06-22T05:55:09;3.90;;;3.70;;
63296;SDS011;49419;51.716;-4.948;2023-06-22T05:57:46;3.80;;;3.60;;
63296;SDS011;49419;51.716;-4.948;2023-06-22T06:00:11;3.70;;;3.50;;
63296;SDS011;49419;51.716;-4.948;2023-06-22T06:02:41;3.70;;;3.50;;
63296;SDS011;49419;51.716;-4.948;2023-06-22T06:05:10;3.58;;;3.38;;
63296;SDS011;49419;51.716;-4.948;2023-06-22T06:07:37;3.67;;;3.47;;
63296;SDS011;49419;51.716;-4.948;2023-06-22T06:10:06;3.30;;;3.20;;
63296;SDS011;49419;51.716;-4.948;2023-06-22T06:12:33;3.38;;;3.28;;
63296;SDS011;49419;51.716;-4.948;2023-06-22T06:14:58;3.20;;;3.10;;
63296;SDS011;49419;51.716;-4.948;2023-06-22T06:17:24;3.50;;;3.30;;
63296;SDS011;49419;51.716;-4.948;2023-06-22T06:19:49;3.60;;;3.40;;
63296;SDS011;49419;51.716;-4.948;2023-06-22T06:22:16;3.83;;;3.63;;
63296;SDS011;49419;51.716;-4.948;2023-06-22T06:24:43;4.00;;;3.80;;
63296;SDS011;49419;51.716;-4.948;2023-06-22T06:27:24;4.10;;;3.90;;
63296;SDS011;49419;51.716;-4.948;2023-06-22T06:29:54;4.10;;;3.90;;
63296;SDS011;49419;51.716;-4.948;2023-06-22T06:32:22;4.00;;;3.80;;
63296;SDS011;49419;51.716;-4.948;2023-06-22T06:34:49;4.20;;;4.00;;
63296;SDS011;49419;51.716;-4.948;2023-06-22T06:37:17;4.28;;;4.07;;
63296;SDS011;49419;51.716;-4.948;2023-06-22T06:39:43;4.40;;;4.20;;
63296;SDS011;49419;51.716;-4.948;2023-06-22T06:42:12;4.45;;;4.25;;
63296;SDS011;49419;51.716;-4.948;2023-06-22T06:45:04;4.60;;;4.40;;
63296;SDS011;49419;51.716;-4.948;2023-06-22T06:47:33;4.65;;;4.45;;
63296;SDS011;49419;51.716;-4.948;2023-06-22T06:49:59;4.80;;;4.60;;
63296;SDS011;49419;51.716;-4.948;2023-06-22T06:52:26;4.68;;;4.47;;
63296;SDS011;49419;51.716;-4.948;2023-06-22T06:54:59;4.60;;;4.40;;
63296;SDS011;49419;51.716;-4.948;2023-06-22T06:57:25;4.40;;;4.20;;
63296;SDS011;49419;51.716;-4.948;2023-06-22T06:59:57;4.47;;;4.28;;
63296;SDS011;49419;51.716;-4.948;2023-06-22T07:02:32;4.40;;;4.20;;
63296;SDS011;49419;51.716;-4.948;2023-06-22T07:05:08;4.40;;;4.20;;
63296;SDS011;49419;51.716;-4.948;2023-06-22T07:12:59;4.30;;;4.10;;
63296;SDS011;49419;51.716;-4.948;2023-06-22T07:15:24;4.20;;;4.00;;
63296;SDS011;49419;51.716;-4.948;2023-06-22T07:17:51;4.18;;;3.97;;
63296;SDS011;49419;51.716;-4.948;2023-06-22T07:20:17;4.20;;;4.00;;
63296;SDS011;49419;51.716;-4.948;2023-06-22T07:22:45;4.07;;;3.88;;
63296;SDS011;49419;51.716;-4.948;2023-06-22T07:25:12;4.00;;;3.80;;
63296;SDS011;49419;51.716;-4.948;2023-06-22T07:30:52;3.80;;;3.60;;
63296;SDS011;49419;51.716;-4.948;2023-06-22T07:33:17;3.70;;;3.50;;
63296;SDS011;49419;51.716;-4.948;2023-06-22T07:35:44;3.50;;;3.38;;
63296;SDS011;49419;51.716;-4.948;2023-06-22T07:38:14;3.40;;;3.30;;
63296;SDS011;49419;51.716;-4.948;2023-06-22T07:40:49;3.40;;;3.30;;
63296;SDS011;49419;51.716;-4.948;2023-06-22T07:43:22;3.40;;;3.30;;
63296;SDS011;49419;51.716;-4.948;2023-06-22T07:46:07;3.10;;;3.00;;
63296;SDS011;49419;51.716;-4.948;2023-06-22T07:48:38;2.95;;;2.85;;
63296;SDS011;49419;51.716;-4.948;2023-06-22T07:51:09;3.00;;;2.90;;
63296;SDS011;49419;51.716;-4.948;2023-06-22T07:53:39;3.08;;;2.97;;
63296;SDS011;49419;51.716;-4.948;2023-06-22T07:56:10;3.30;;;3.20;;
63296;SDS011;49419;51.716;-4.948;2023-06-22T07:58:37;3.30;;;3.20;;
63296;SDS011;49419;51.716;-4.948;2023-06-22T08:03:42;3.10;;;3.00;;
63296;SDS011;49419;51.716;-4.948;2023-06-22T08:06:09;3.10;;;3.00;;
63296;SDS011;49419;51.716;-4.948;2023-06-22T08:08:35;3.00;;;2.90;;
63296;SDS011;49419;51.716;-4.948;2023-06-22T08:11:01;2.90;;;2.80;;
63296;SDS011;49419;51.716;-4.948;2023-06-22T08:13:27;2.78;;;2.67;;
63296;SDS011;49419;51.716;-4.948;2023-06-22T08:15:53;2.85;;;2.75;;
63296;SDS011;49419;51.716;-4.948;2023-06-22T08:18:19;3.30;;;3.10;;
63296;SDS011;49419;51.716;-4.948;2023-06-22T08:20:44;2.90;;;2.80;;
63296;SDS011;49419;51.716;-4.948;2023-06-22T08:23:12;2.83;;;2.72;;
63296;SDS011;49419;51.716;-4.948;2023-06-22T08:25:38;2.88;;;2.78;;
63296;SDS011;49419;51.716;-4.948;2023-06-22T08:28:09;3.00;;;2.90;;
63296;SDS011;49419;51.716;-4.948;2023-06-22T08:30:35;3.50;;;3.30;;
63296;SDS011;49419;51.716;-4.948;2023-06-22T08:33:00;3.03;;;2.92;;
63296;SDS011;49419;51.716;-4.948;2023-06-22T08:35:26;3.10;;;3.00;;
63296;SDS011;49419;51.716;-4.948;2023-06-22T08:37:52;3.03;;;2.83;;
63296;SDS011;49419;51.716;-4.948;2023-06-22T08:40:20;2.80;;;2.70;;
63296;SDS011;49419;51.716;-4.948;2023-06-22T08:42:52;2.90;;;2.80;;
63296;SDS011;49419;51.716;-4.948;2023-06-22T08:45:23;2.80;;;2.70;;
63296;SDS011;49419;51.716;-4.948;2023-06-22T08:47:48;2.88;;;2.72;;
63296;SDS011;49419;51.716;-4.948;2023-06-22T08:50:25;2.90;;;2.80;;
63296;SDS011;49419;51.716;-4.948;2023-06-22T08:52:52;3.13;;;2.92;;
63296;SDS011;49419;51.716;-4.948;2023-06-22T08:55:17;2.70;;;2.60;;
63296;SDS011;49419;51.716;-4.948;2023-06-22T08:57:43;3.03;;;2.83;;
63296;SDS011;49419;51.716;-4.948;2023-06-22T09:00:09;2.90;;;2.70;;
63296;SDS011;49419;51.716;-4.948;2023-06-22T09:02:44;3.00;;;2.90;;
63296;SDS011;49419;51.716;-4.948;2023-06-22T09:05:10;4.10;;;3.90;;
63296;SDS011;49419;51.716;-4.948;2023-06-22T09:07:36;4.80;;;4.60;;
63296;SDS011;49419;51.716;-4.948;2023-06-22T09:10:02;4.75;;;4.55;;
63296;SDS011;49419;51.716;-4.948;2023-06-22T09:12:31;5.60;;;5.30;;
63296;SDS011;49419;51.716;-4.948;2023-06-22T09:14:59;6.18;;;5.88;;
63296;SDS011;49419;51.716;-4.948;2023-06-22T09:17:42;5.70;;;5.35;;
63296;SDS011;49419;51.716;-4.948;2023-06-22T09:23:13;6.05;;;5.75;;
63296;SDS011;49419;51.716;-4.948;2023-06-22T09:25:40;6.22;;;5.82;;
63296;SDS011;49419;51.716;-4.948;2023-06-22T09:28:06;6.00;;;5.70;;
63296;SDS011;49419;51.716;-4.948;2023-06-22T09:30:31;6.40;;;6.10;;
63296;SDS011;49419;51.716;-4.948;2023-06-22T09:32:57;7.15;;;6.65;;
63296;SDS011;49419;51.716;-4.948;2023-06-22T09:35:23;7.40;;;7.00;;
63296;SDS011;49419;51.716;-4.948;2023-06-22T09:37:48;7.60;;;7.20;;
63296;SDS011;49419;51.716;-4.948;2023-06-22T09:40:14;7.45;;;7.05;;
63296;SDS011;49419;51.716;-4.948;2023-06-22T09:42:49;7.50;;;7.10;;
63296;SDS011;49419;51.716;-4.948;2023-06-22T09:45:16;7.30;;;6.90;;
63296;SDS011;49419;51.716;-4.948;2023-06-22T09:47:41;7.10;;;6.70;;
63296;SDS011;49419;51.716;-4.948;2023-06-22T09:50:15;7.10;;;6.70;;
63296;SDS011;49419;51.716;-4.948;2023-06-22T09:52:41;7.25;;;6.85;;
63296;SDS011;49419;51.716;-4.948;2023-06-22T09:55:12;7.47;;;7.07;;
63296;SDS011;49419;51.716;-4.948;2023-06-22T09:57:37;7.35;;;6.95;;
63296;SDS011;49419;51.716;-4.948;2023-06-22T10:00:11;7.47;;;7.07;;
63296;SDS011;49419;51.716;-4.948;2023-06-22T10:02:47;7.60;;;7.20;;
63296;SDS011;49419;51.716;-4.948;2023-06-22T10:05:18;7.40;;;7.00;;
63296;SDS011;49419;51.716;-4.948;2023-06-22T10:08:00;7.30;;;6.90;;
63296;SDS011;49419;51.716;-4.948;2023-06-22T10:10:27;6.35;;;5.97;;
63296;SDS011;49419;51.716;-4.948;2023-06-22T10:12:56;7.40;;;7.00;;
63296;SDS011;49419;51.716;-4.948;2023-06-22T10:15:22;7.82;;;7.35;;
63296;SDS011;49419;51.716;-4.948;2023-06-22T10:17:49;7.78;;;7.28;;
63296;SDS011;49419;51.716;-4.948;2023-06-22T10:20:15;7.38;;;6.97;;
63296;SDS011;49419;51.716;-4.948;2023-06-22T10:22:49;7.35;;;6.95;;
63296;SDS011;49419;51.716;-4.948;2023-06-22T10:25:15;7.13;;;6.72;;
63296;SDS011;49419;51.716;-4.948;2023-06-22T10:27:42;7.10;;;6.70;;
63296;SDS011;49419;51.716;-4.948;2023-06-22T10:30:09;7.13;;;6.72;;
63296;SDS011;49419;51.716;-4.948;2023-06-22T10:32:48;6.53;;;6.13;;
63296;SDS011;49419;51.716;-4.948;2023-06-22T10:35:14;7.05;;;6.65;;
63296;SDS011;49419;51.716;-4.948;2023-06-22T10:37:55;7.00;;;6.60;;
63296;SDS011;49419;51.716;-4.948;2023-06-22T10:40:41;4.53;;;4.32;;
63296;SDS011;49419;51.716;-4.948;2023-06-22T10:43:11;4.47;;;4.28;;
63296;SDS011;49419;51.716;-4.948;2023-06-22T10:45:37;4.40;;;4.20;;
63296;SDS011;49419;51.716;-4.948;2023-06-22T10:48:06;4.47;;;4.18;;
63296;SDS011;49419;51.716;-4.948;2023-06-22T10:50:31;4.07;;;3.88;;
63296;SDS011;49419;51.716;-4.948;2023-06-22T10:52:57;4.47;;;4.18;;
63296;SDS011;49419;51.716;-4.948;2023-06-22T10:55:22;4.45;;;4.25;;
63296;SDS011;49419;51.716;-4.948;2023-06-22T10:57:53;4.72;;;4.43;;
63296;SDS011;49419;51.716;-4.948;2023-06-22T11:00:26;4.25;;;4.05;;
63296;SDS011;49419;51.716;-4.948;2023-06-22T11:02:52;4.30;;;4.10;;
63296;SDS011;49419;51.716;-4.948;2023-06-22T11:05:18;4.57;;;4.28;;
63296;SDS011;49419;51.716;-4.948;2023-06-22T11:07:43;4.00;;;3.80;;
63296;SDS011;49419;51.716;-4.948;2023-06-22T11:10:14;4.00;;;3.80;;
63296;SDS011;49419;51.716;-4.948;2023-06-22T11:12:43;4.13;;;3.92;;
63296;SDS011;49419;51.716;-4.948;2023-06-22T11:17:55;4.40;;;4.10;;
63296;SDS011;49419;51.716;-4.948;2023-06-22T11:20:20;4.28;;;3.97;;
63296;SDS011;49419;51.716;-4.948;2023-06-22T11:22:53;4.13;;;3.90;;
63296;SDS011;49419;51.716;-4.948;2023-06-22T11:25:18;4.07;;;3.88;;
63296;SDS011;49419;51.716;-4.948;2023-06-22T11:27:44;4.38;;;4.10;;
63296;SDS011;49419;51.716;-4.948;2023-06-22T11:30:10;4.57;;;4.28;;
63296;SDS011;49419;51.716;-4.948;2023-06-22T11:32:35;4.38;;;4.18;;
63296;SDS011;49419;51.716;-4.948;2023-06-22T11:35:01;4.50;;;4.22;;
63296;SDS011;49419;51.716;-4.948;2023-06-22T11:37:27;3.95;;;3.75;;
63296;SDS011;49419;51.716;-4.948;2023-06-22T11:39:52;4.32;;;4.03;;
63296;SDS011;49419;51.716;-4.948;2023-06-22T11:42:20;4.70;;;4.40;;
63296;SDS011;49419;51.716;-4.948;2023-06-22T11:44:54;4.30;;;4.00;;
63296;SDS011;49419;51.716;-4.948;2023-06-22T11:47:22;4.32;;;4.03;;
63296;SDS011;49419;51.716;-4.948;2023-06-22T11:49:47;4.18;;;3.88;;
63296;SDS011;49419;51.716;-4.948;2023-06-22T11:52:13;3.97;;;3.70;;
63296;SDS011;49419;51.716;-4.948;2023-06-22T11:54:39;4.35;;;4.05;;
63296;SDS011;49419;51.716;-4.948;2023-06-22T11:57:06;4.20;;;4.00;;
63296;SDS011;49419;51.716;-4.948;2023-06-22T11:59:47;3.90;;;3.70;;
63296;SDS011;49419;51.716;-4.948;2023-06-22T12:02:13;4.07;;;3.78;;
63296;SDS011;49419;51.716;-4.948;2023-06-22T12:04:38;4.05;;;3.85;;
63296;SDS011;49419;51.716;-4.948;2023-06-22T12:07:04;4.00;;;3.80;;
63296;SDS011;49419;51.716;-4.948;2023-06-22T12:09:29;3.90;;;3.70;;
63296;SDS011;49419;51.716;-4.948;2023-06-22T12:11:57;4.25;;;4.00;;
63296;SDS011;49419;51.716;-4.948;2023-06-22T12:14:34;3.90;;;3.70;;
63296;SDS011;49419;51.716;-4.948;2023-06-22T12:17:00;4.03;;;3.80;;
63296;SDS011;49419;51.716;-4.948;2023-06-22T12:19:25;3.85;;;3.65;;
63296;SDS011;49419;51.716;-4.948;2023-06-22T12:21:53;4.35;;;4.05;;
63296;SDS011;49419;51.716;-4.948;2023-06-22T12:24:18;4.18;;;3.88;;
63296;SDS011;49419;51.716;-4.948;2023-06-22T12:26:46;4.10;;;3.83;;
63296;SDS011;49419;51.716;-4.948;2023-06-22T12:29:12;4.38;;;4.07;;
63296;SDS011;49419;51.716;-4.948;2023-06-22T12:31:39;4.60;;;4.30;;
63296;SDS011;49419;51.716;-4.948;2023-06-22T12:34:08;4.60;;;4.20;;
63296;SDS011;49419;51.716;-4.948;2023-06-22T12:36:34;4.75;;;4.45;;
63296;SDS011;49419;51.716;-4.948;2023-06-22T12:39:11;4.40;;;4.10;;
63296;SDS011;49419;51.716;-4.948;2023-06-22T12:41:44;4.53;;;4.22;;
63296;SDS011;49419;51.716;-4.948;2023-06-22T12:44:13;4.30;;;4.00;;
63296;SDS011;49419;51.716;-4.948;2023-06-22T12:46:38;4.50;;;4.20;;
63296;SDS011;49419;51.716;-4.948;2023-06-22T12:49:11;4.55;;;4.25;;
63296;SDS011;49419;51.716;-4.948;2023-06-22T12:51:39;4.40;;;4.10;;
63296;SDS011;49419;51.716;-4.948;2023-06-22T12:54:08;4.65;;;4.35;;
63296;SDS011;49419;51.716;-4.948;2023-06-22T12:56:37;4.40;;;4.10;;
63296;SDS011;49419;51.716;-4.948;2023-06-22T12:59:04;4.10;;;3.80;;
63296;SDS011;49419;51.716;-4.948;2023-06-22T13:01:31;4.20;;;3.90;;
63296;SDS011;49419;51.716;-4.948;2023-06-22T13:03:57;4.10;;;3.88;;
63296;SDS011;49419;51.716;-4.948;2023-06-22T13:06:24;4.40;;;4.10;;
63296;SDS011;49419;51.716;-4.948;2023-06-22T13:08:53;4.40;;;4.10;;
63296;SDS011;49419;51.716;-4.948;2023-06-22T13:11:21;4.60;;;4.30;;
63296;SDS011;49419;51.716;-4.948;2023-06-22T13:13:46;4.13;;;3.83;;
63296;SDS011;49419;51.716;-4.948;2023-06-22T13:16:15;4.63;;;4.25;;
63296;SDS011;49419;51.716;-4.948;2023-06-22T13:18:41;4.07;;;3.80;;
63296;SDS011;49419;51.716;-4.948;2023-06-22T13:21:06;4.30;;;4.00;;
63296;SDS011;49419;51.716;-4.948;2023-06-22T13:23:41;4.30;;;4.00;;
63296;SDS011;49419;51.716;-4.948;2023-06-22T13:26:11;4.35;;;3.95;;
63296;SDS011;49419;51.716;-4.948;2023-06-22T13:28:36;4.55;;;4.20;;
63296;SDS011;49419;51.716;-4.948;2023-06-22T13:31:05;4.20;;;3.92;;
63296;SDS011;49419;51.716;-4.948;2023-06-22T13:33:32;3.75;;;3.55;;
63296;SDS011;49419;51.716;-4.948;2023-06-22T13:36:01;4.05;;;3.85;;
63296;SDS011;49419;51.716;-4.948;2023-06-22T13:38:35;4.15;;;3.85;;
63296;SDS011;49419;51.716;-4.948;2023-06-22T13:41:03;4.18;;;3.90;;
63296;SDS011;49419;51.716;-4.948;2023-06-22T13:43:29;4.25;;;3.88;;
63296;SDS011;49419;51.716;-4.948;2023-06-22T13:45:57;4.47;;;4.18;;
63296;SDS011;49419;51.716;-4.948;2023-06-22T13:48:23;4.25;;;3.97;;
63296;SDS011;49419;51.716;-4.948;2023-06-22T13:50:53;4.10;;;3.80;;
63296;SDS011;49419;51.716;-4.948;2023-06-22T13:53:22;3.80;;;3.60;;
63296;SDS011;49419;51.716;-4.948;2023-06-22T13:55:49;3.72;;;3.53;;
63296;SDS011;49419;51.716;-4.948;2023-06-22T13:58:15;4.07;;;3.78;;
63296;SDS011;49419;51.716;-4.948;2023-06-22T14:00:40;4.00;;;3.70;;
63296;SDS011;49419;51.716;-4.948;2023-06-22T14:03:07;3.90;;;3.63;;
63296;SDS011;49419;51.716;-4.948;2023-06-22T14:05:33;3.60;;;3.30;;
63296;SDS011;49419;51.716;-4.948;2023-06-22T14:07:58;3.90;;;3.60;;
63296;SDS011;49419;51.716;-4.948;2023-06-22T14:10:24;3.50;;;3.30;;
63296;SDS011;49419;51.716;-4.948;2023-06-22T14:12:50;3.53;;;3.33;;
63296;SDS011;49419;51.716;-4.948;2023-06-22T14:15:21;3.40;;;3.13;;
63296;SDS011;49419;51.716;-4.948;2023-06-22T14:17:47;3.20;;;3.00;;
63296;SDS011;49419;51.716;-4.948;2023-06-22T14:20:12;3.40;;;3.20;;
63296;SDS011;49419;51.716;-4.948;2023-06-22T14:22:40;3.37;;;3.17;;
63296;SDS011;49419;51.716;-4.948;2023-06-22T14:25:07;3.63;;;3.42;;
63296;SDS011;49419;51.716;-4.948;2023-06-22T14:27:36;3.13;;;2.92;;
63296;SDS011;49419;51.716;-4.948;2023-06-22T14:30:09;3.20;;;3.00;;
63296;SDS011;49419;51.716;-4.948;2023-06-22T14:32:36;3.30;;;3.10;;
63296;SDS011;49419;51.716;-4.948;2023-06-22T14:35:02;3.15;;;2.95;;
63296;SDS011;49419;51.716;-4.948;2023-06-22T14:40:01;3.13;;;2.92;;
63296;SDS011;49419;51.716;-4.948;2023-06-22T14:42:40;2.90;;;2.80;;
63296;SDS011;49419;51.716;-4.948;2023-06-22T14:45:06;3.20;;;3.00;;
63296;SDS011;49419;51.716;-4.948;2023-06-22T14:47:37;3.30;;;3.10;;
63296;SDS011;49419;51.716;-4.948;2023-06-22T14:50:16;3.20;;;3.00;;
63296;SDS011;49419;51.716;-4.948;2023-06-22T14:52:41;3.22;;;3.03;;
63296;SDS011;49419;51.716;-4.948;2023-06-22T14:55:07;3.13;;;2.92;;
63296;SDS011;49419;51.716;-4.948;2023-06-22T14:57:33;2.40;;;2.30;;
63296;SDS011;49419;51.716;-4.948;2023-06-22T14:59:58;0.80;;;0.77;;
63296;SDS011;49419;51.716;-4.948;2023-06-22T15:02:24;1.30;;;1.20;;
63296;SDS011;49419;51.716;-4.948;2023-06-22T15:04:50;1.27;;;1.17;;
63296;SDS011;49419;51.716;-4.948;2023-06-22T15:07:18;0.93;;;0.93;;
63296;SDS011;49419;51.716;-4.948;2023-06-22T15:09:46;0.80;;;0.80;;
63296;SDS011;49419;51.716;-4.948;2023-06-22T15:12:11;1.35;;;0.90;;
63296;SDS011;49419;51.716;-4.948;2023-06-22T15:14:38;0.70;;;0.70;;
63296;SDS011;49419;51.716;-4.948;2023-06-22T15:17:07;0.60;;;0.60;;
63296;SDS011;49419;51.716;-4.948;2023-06-22T15:19:47;0.70;;;0.68;;
63296;SDS011;49419;51.716;-4.948;2023-06-22T15:22:16;0.95;;;0.73;;
63296;SDS011;49419;51.716;-4.948;2023-06-22T15:24:44;0.57;;;0.57;;
63296;SDS011;49419;51.716;-4.948;2023-06-22T15:27:10;0.68;;;0.63;;